Time;durP1;ratioP1;P1;durP2;ratioP2;P2;SDS_P1;SDS_P2;PMS_P1;PMS_P2;Temp;Humidity;BMP_temperature;BMP_pressure;BME280_temperature;BME280_humidity;BME280_pressure;Samples;Min_cycle;Max_cycle;Signal;HPM_P1;HPM_P2
2021/12/17 00:00:46;;;;;;;171.48;29.15;;;;;;;-146.64;100.00;40897.63;5057844;28;20029;-76
2021/12/17 00:03:32;;;;;;;120.28;27.33;;;;;;;-146.64;100.00;40875.09;5051904;28;20504;-77
2021/12/17 00:06:14;;;;;;;155.50;24.80;;;;;;;-146.64;100.00;40901.72;5049687;28;20506;-76
2021/12/17 00:08:47;;;;;;;106.72;25.02;;;;;;;-146.64;100.00;40914.00;5056849;28;20035;-76
2021/12/17 00:11:12;;;;;;;222.13;29.85;;;;;;;-146.64;100.00;40977.47;5049300;28;20165;-76
2021/12/17 00:13:42;;;;;;;198.38;27.00;;;;;;;-146.64;100.00;40954.94;5044504;28;20115;-76
2021/12/17 00:16:15;;;;;;;143.02;26.48;;;;;;;-146.64;100.00;40963.13;5053167;28;20112;-76
2021/12/17 00:18:56;;;;;;;146.10;25.75;;;;;;;-146.64;100.00;41008.19;5033509;28;20117;-74
2021/12/17 00:48:43;;;;;;;188.35;24.60;;;;;;;-146.64;100.00;41118.75;5059778;28;20154;-74
2021/12/17 00:53:58;;;;;;;217.63;28.23;;;;;;;-146.64;100.00;41294.84;5063127;28;20035;-74
2021/12/17 00:56:24;;;;;;;180.57;25.48;;;;;;;-146.64;100.00;41323.50;5051701;28;20036;-74
2021/12/17 00:58:49;;;;;;;177.13;27.15;;;;;;;-146.64;100.00;41376.75;5043465;28;20028;-74
2021/12/17 01:01:16;;;;;;;168.57;25.73;;;;;;;-146.64;100.00;41391.06;5062949;28;20036;-74
2021/12/17 01:03:42;;;;;;;115.53;23.60;;;;;;;-146.64;100.00;41421.78;5061729;28;20071;-75
2021/12/17 01:06:08;;;;;;;313.42;28.73;;;;;;;-146.64;100.00;41446.38;5056032;28;20033;-74
2021/12/17 01:08:33;;;;;;;198.02;24.02;;;;;;;-146.64;100.00;41481.16;5058916;28;20116;-75
2021/12/17 01:10:59;;;;;;;263.52;24.83;;;;;;;-146.64;100.00;41511.88;5038040;28;20025;-74
2021/12/17 01:13:25;;;;;;;150.98;18.67;;;;;;;-146.64;100.00;41575.38;5053546;28;20083;-74
2021/12/17 01:15:51;;;;;;;108.65;17.95;;;;;;;-146.64;100.00;41618.38;5064219;28;20494;-75
2021/12/17 01:18:20;;;;;;;308.00;24.13;;;;;;;-146.64;100.00;41577.41;5059109;28;20119;-74
2021/12/17 01:36:28;;;;;;;193.63;15.10;;;;;;;-146.64;100.00;41757.63;5051057;28;20054;-75
2021/12/17 01:42:02;;;;;;;175.90;10.95;;;;;;;-146.64;100.00;41831.34;5055619;28;20066;-74
2021/12/17 01:44:28;;;;;;;204.35;12.40;;;;;;;-146.64;100.00;41866.16;5052973;28;20055;-74
2021/12/17 01:46:54;;;;;;;117.63;9.18;;;;;;;-146.64;100.00;41870.25;5065132;28;20488;-74
2021/12/17 02:00:08;;;;;;;172.40;10.77;;;;;;;-146.64;100.00;41966.50;5058351;28;20066;-75
2021/12/17 02:02:41;;;;;;;173.85;11.05;;;;;;;-146.64;100.00;41921.47;5059894;28;20033;-75
2021/12/17 02:05:08;;;;;;;164.60;12.77;;;;;;;-146.64;100.00;41907.13;5056960;28;20094;-74
2021/12/17 02:07:33;;;;;;;186.95;11.75;;;;;;;-146.64;100.00;41872.31;5064954;28;20468;-74
2021/12/17 02:29:00;;;;;;;165.82;10.70;;;;;;;-146.64;100.00;41839.53;5062480;28;20035;-75
2021/12/17 02:31:29;;;;;;;220.43;11.43;;;;;;;-146.64;100.00;41810.88;5053070;28;20032;-74
2021/12/17 02:36:44;;;;;;;145.13;10.77;;;;;;;-146.64;100.00;41747.38;5063764;28;20040;-74
2021/12/17 02:47:15;;;;;;;155.93;10.32;;;;;;;-146.64;100.00;41903.03;5052593;28;20538;-74
2021/12/17 02:49:42;;;;;;;226.30;12.35;;;;;;;-146.64;100.00;41962.41;5066066;28;20028;-74
2021/12/17 02:52:08;;;;;;;192.98;11.57;;;;;;;-146.64;100.00;42007.47;5056091;28;20435;-74
2021/12/17 02:54:35;;;;;;;145.82;11.07;;;;;;;-146.64;100.00;42027.94;5045945;28;20094;-75
2021/12/17 02:57:01;;;;;;;;;;;;;;;-146.64;100.00;42081.19;5067198;28;20082;-74
2021/12/17 02:59:26;;;;;;;197.00;11.90;;;;;;;-146.64;100.00;42136.50;5059081;28;19959;-75
2021/12/17 03:01:52;;;;;;;180.25;12.05;;;;;;;-146.64;100.00;42167.22;5047034;28;20056;-74
2021/12/17 03:04:18;;;;;;;199.45;12.32;;;;;;;-146.64;100.00;42152.88;5054812;28;20074;-74
2021/12/17 03:06:44;;;;;;;257.45;13.63;;;;;;;-146.64;100.00;42099.63;5046985;28;20059;-74
2021/12/17 03:09:10;;;;;;;228.23;13.00;;;;;;;-146.64;100.00;42204.09;5034972;28;20024;-74
2021/12/17 03:11:36;;;;;;;173.38;12.45;;;;;;;-146.64;100.00;42208.19;5060664;28;20032;-75
2021/12/17 03:14:01;;;;;;;139.25;13.85;;;;;;;-146.64;100.00;42238.91;5060174;28;20035;-74
2021/12/17 03:16:39;;;;;;;199.75;13.52;;;;;;;-146.64;100.00;42216.38;5043651;28;20029;-74
2021/12/17 03:19:25;;;;;;;242.70;13.25;;;;;;;-146.64;100.00;42107.81;5056103;28;20079;-74
2021/12/17 03:24:35;;;;;;;199.35;12.13;;;;;;;-146.64;100.00;42040.25;5069163;28;20039;-74
2021/12/17 03:27:04;;;;;;;200.68;13.68;;;;;;;-146.64;100.00;42062.78;5067538;28;20473;-74
2021/12/17 03:29:29;;;;;;;133.93;11.35;;;;;;;-146.64;100.00;42113.97;5058038;28;20021;-74
2021/12/17 03:31:55;;;;;;;182.05;11.95;;;;;;;-146.64;100.00;42068.91;5062653;28;20090;-74
2021/12/17 03:34:21;;;;;;;167.63;13.32;;;;;;;-146.64;100.00;42103.72;5061789;28;20028;-74
2021/12/17 03:36:48;;;;;;;125.50;12.43;;;;;;;-146.64;100.00;42187.69;5043540;28;20037;-74
2021/12/17 03:39:15;;;;;;;175.77;12.45;;;;;;;-146.64;100.00;42261.44;5044826;28;20044;-74
2021/12/17 03:41:47;;;;;;;157.57;13.07;;;;;;;-146.64;100.00;42302.41;5062562;28;20033;-74
2021/12/17 03:44:12;;;;;;;158.75;13.32;;;;;;;-146.64;100.00;42347.47;5065005;28;20450;-74
2021/12/17 03:46:38;;;;;;;136.82;12.15;;;;;;;-146.64;100.00;42367.94;5065129;28;20058;-74
2021/12/17 03:49:03;;;;;;;172.70;13.65;;;;;;;-146.64;100.00;42433.47;5052876;28;20043;-74
2021/12/17 03:51:29;;;;;;;199.40;14.32;;;;;;;-146.64;100.00;42470.34;5049662;28;20040;-75
2021/12/17 03:53:57;;;;;;;96.05;12.77;;;;;;;-146.64;100.00;42490.84;5042943;28;20024;-74
2021/12/17 03:56:24;;;;;;;209.43;15.88;;;;;;;-146.64;100.00;42486.72;5060005;28;20077;-74
2021/12/17 03:58:50;;;;;;;243.63;15.13;;;;;;;-146.64;100.00;42548.19;5044830;28;20535;-74
2021/12/17 04:01:16;;;;;;;202.23;14.98;;;;;;;-146.64;100.00;42564.56;5067168;28;20123;-74
2021/12/17 04:03:41;;;;;;;280.65;14.52;;;;;;;-146.64;100.00;42654.69;5036410;28;20025;-74
2021/12/17 04:06:07;;;;;;;207.50;15.63;;;;;;;-146.64;100.00;42744.81;5050222;28;20074;-74
2021/12/17 04:08:32;;;;;;;193.73;14.13;;;;;;;-146.64;100.00;42757.13;5060355;28;20477;-74
2021/12/17 04:11:04;;;;;;;194.95;15.05;;;;;;;-146.64;100.00;42796.03;5042443;28;20132;-74
2021/12/17 04:13:36;;;;;;;230.25;15.60;;;;;;;-146.64;100.00;42793.97;5059377;28;20127;-74
2021/12/17 04:16:06;;;;;;;233.88;16.48;;;;;;;-146.64;100.00;42800.13;5056752;28;20024;-74
2021/12/17 04:18:32;;;;;;;191.75;13.68;;;;;;;-146.64;100.00;42832.91;5063585;28;20480;-74
2021/12/17 04:21:00;;;;;;;193.52;15.57;;;;;;;-146.64;100.00;42882.06;5035595;28;20021;-74
2021/12/17 04:23:26;;;;;;;164.65;13.30;;;;;;;-146.64;100.00;42884.13;5056505;28;20037;-74
2021/12/17 04:25:51;;;;;;;188.27;14.15;;;;;;;-146.64;100.00;42880.03;5058188;28;20035;-75
2021/12/17 04:28:18;;;;;;;115.97;14.75;;;;;;;-146.64;100.00;42908.69;5052753;28;20090;-74
2021/12/17 04:30:44;;;;;;;133.25;13.82;;;;;;;-146.64;100.00;42933.28;5056292;28;20094;-74
2021/12/17 04:33:10;;;;;;;129.98;14.85;;;;;;;-146.64;100.00;42945.56;5061720;28;20028;-74
2021/12/17 04:35:37;;;;;;;91.75;13.95;;;;;;;-146.64;100.00;42974.25;5062155;28;20498;-75
2021/12/17 04:38:05;;;;;;;107.45;14.82;;;;;;;-146.64;100.00;42918.94;5057091;28;20033;-75
2021/12/17 04:40:30;;;;;;;109.50;13.57;;;;;;;-146.64;100.00;42968.09;5057472;28;20707;-74
2021/12/17 04:45:27;;;;;;;81.95;12.90;;;;;;;-146.64;100.00;43015.22;5055205;28;20032;-74
2021/12/17 04:58:48;;;;;;;101.63;14.52;;;;;;;-146.64;100.00;43146.31;5049385;28;20071;-74
2021/12/17 05:01:15;;;;;;;116.00;14.55;;;;;;;-146.64;100.00;43150.41;5053279;28;20115;-75
2021/12/17 05:03:41;;;;;;;106.40;16.63;;;;;;;-146.64;100.00;43123.78;5064432;28;20094;-75
2021/12/17 05:06:06;;;;;;;105.68;16.08;;;;;;;-146.64;100.00;43166.81;5057823;28;20480;-74
2021/12/17 05:08:32;;;;;;;110.00;17.48;;;;;;;-146.64;100.00;43224.16;5034738;28;20075;-74
2021/12/17 05:19:19;;;;;;;135.30;17.92;;;;;;;-146.64;100.00;43392.16;5064206;28;20034;-74
2021/12/17 05:21:45;;;;;;;103.88;18.17;;;;;;;-146.64;100.00;43437.25;5051552;28;20029;-74
2021/12/17 05:24:10;;;;;;;175.00;19.38;;;;;;;-146.64;100.00;43435.19;5052236;28;20388;-74
2021/12/17 05:26:35;;;;;;;134.60;20.10;;;;;;;-146.64;100.00;43472.06;5053908;28;20112;-74
2021/12/17 05:29:00;;;;;;;120.35;20.00;;;;;;;-146.64;100.00;43549.91;5056318;28;20119;-74
2021/12/17 05:31:26;;;;;;;112.05;20.05;;;;;;;-146.64;100.00;43564.25;5057651;28;20370;-74
2021/12/17 05:33:52;;;;;;;105.78;19.75;;;;;;;-146.64;100.00;43570.41;5063336;28;20044;-74
2021/12/17 05:36:20;;;;;;;115.93;21.30;;;;;;;-146.64;100.00;43588.84;5054630;28;20065;-74
2021/12/17 05:38:46;;;;;;;120.88;20.00;;;;;;;-146.64;100.00;43590.91;5048830;28;20055;-74
2021/12/17 05:41:11;;;;;;;125.45;22.00;;;;;;;-146.64;100.00;43592.94;5050826;28;20056;-74
2021/12/17 05:43:38;;;;;;;117.50;21.73;;;;;;;-146.64;100.00;43676.94;5058271;28;20522;-74
2021/12/17 05:48:33;;;;;;;142.65;22.60;;;;;;;-146.64;100.00;43724.06;5061844;28;20029;-74
2021/12/17 05:51:00;;;;;;;105.35;20.80;;;;;;;-146.64;100.00;43760.94;5051241;28;20024;-74
2021/12/17 05:53:27;;;;;;;137.43;23.65;;;;;;;-146.64;100.00;43783.50;5052789;28;20032;-75
2021/12/17 05:55:52;;;;;;;127.97;21.70;;;;;;;-146.64;100.00;43795.78;5058340;28;20078;-75
2021/12/17 05:58:18;;;;;;;108.57;19.50;;;;;;;-146.64;100.00;43838.81;5051763;28;20049;-75
2021/12/17 06:00:44;;;;;;;135.30;22.48;;;;;;;-146.64;100.00;43810.13;5052671;28;20119;-75
2021/12/17 06:03:09;;;;;;;124.15;24.83;;;;;;;-146.64;100.00;43836.75;5040217;28;20469;-75
2021/12/17 06:05:35;;;;;;;104.63;23.30;;;;;;;-146.64;100.00;43838.81;5063141;28;20032;-75
2021/12/17 06:08:00;;;;;;;105.22;23.63;;;;;;;-146.64;100.00;43908.47;5058154;28;20028;-74
2021/12/17 06:10:26;;;;;;;112.70;23.08;;;;;;;-146.64;100.00;43851.09;5054363;28;20027;-74
2021/12/17 06:12:51;;;;;;;121.05;25.63;;;;;;;-146.64;100.00;43969.94;5051881;28;20025;-74
2021/12/17 06:15:19;;;;;;;94.55;26.58;;;;;;;-146.64;100.00;43935.13;5053628;28;20061;-74
2021/12/17 06:17:45;;;;;;;99.78;25.70;;;;;;;-146.64;100.00;43998.63;5035937;28;20029;-74
2021/12/17 06:20:12;;;;;;;105.13;25.85;;;;;;;-146.64;100.00;43945.34;5070015;28;20043;-74
2021/12/17 06:22:37;;;;;;;86.53;27.10;;;;;;;-146.64;100.00;43955.59;5042779;28;20024;-74
2021/12/17 06:25:05;;;;;;;83.68;27.33;;;;;;;-146.64;100.00;44033.47;5064164;28;20107;-75
2021/12/17 06:27:30;;;;;;;89.55;26.65;;;;;;;-146.64;100.00;43949.47;5051663;28;20044;-75
2021/12/17 06:29:55;;;;;;;100.10;29.30;;;;;;;-146.64;100.00;43863.41;5057592;28;20706;-74
2021/12/17 06:32:21;;;;;;;82.82;25.35;;;;;;;-146.64;100.00;43910.53;5050932;28;20035;-74
2021/12/17 06:34:47;;;;;;;94.20;26.60;;;;;;;-146.64;100.00;43900.28;5057826;28;20106;-74
2021/12/17 06:37:12;;;;;;;87.88;25.10;;;;;;;-146.64;100.00;43941.25;5050742;28;20021;-74
2021/12/17 06:39:38;;;;;;;80.03;24.52;;;;;;;-146.64;100.00;43822.41;5059015;28;20041;-74
2021/12/17 06:42:04;;;;;;;89.55;26.23;;;;;;;-146.64;100.00;43814.22;5033950;28;20456;-75
2021/12/17 06:44:30;;;;;;;78.80;27.48;;;;;;;-146.64;100.00;43709.72;5055215;28;20020;-75
2021/12/17 06:49:44;;;;;;;72.75;25.73;;;;;;;-146.64;100.00;43638.03;5064454;28;20020;-74
2021/12/17 07:09:13;;;;;;;53.55;22.08;;;;;;;-146.64;100.00;43314.31;5068987;28;20035;-74
2021/12/17 07:11:36;;;;;;;51.50;21.17;;;;;;;-146.64;100.00;43199.59;5069754;28;20090;-74
2021/12/17 07:32:38;;;;;;;35.53;14.57;;;;;;;-146.64;100.00;42519.50;5053809;28;20040;-74
2021/12/17 07:35:37;;;;;;;32.58;15.88;;;;;;;-146.64;100.00;42441.66;5042793;28;20195;-74
2021/12/17 07:40:33;;;;;;;32.50;13.65;;;;;;;-146.64;100.00;42351.56;5049520;28;20032;-74
2021/12/17 07:43:02;;;;;;;25.50;12.48;;;;;;;-146.64;100.00;42318.78;5053789;28;20488;-74
2021/12/17 07:45:28;;;;;;;28.23;13.25;;;;;;;-146.64;100.00;42318.78;5050605;28;20465;-75
2021/12/17 07:47:53;;;;;;;29.67;13.32;;;;;;;-146.64;100.00;42306.50;5048470;28;20039;-74
2021/12/17 07:50:19;;;;;;;28.88;13.48;;;;;;;-146.64;100.00;42290.09;5065452;28;20021;-74
2021/12/17 07:52:44;;;;;;;29.88;14.05;;;;;;;-146.64;100.00;42318.78;5054553;28;20029;-75
2021/12/17 07:55:09;;;;;;;35.85;16.63;;;;;;;-146.64;100.00;42318.78;5048161;28;20153;-75
2021/12/17 07:57:35;;;;;;;36.97;15.10;;;;;;;-146.64;100.00;42318.78;5063205;28;20076;-75
2021/12/17 08:00:00;;;;;;;39.85;16.23;;;;;;;-146.64;100.00;42322.88;5049450;28;20033;-74
2021/12/17 08:02:25;;;;;;;46.67;17.02;;;;;;;-146.64;100.00;42294.19;5053824;28;20625;-74
2021/12/17 08:04:51;;;;;;;33.92;15.52;;;;;;;-146.64;100.00;42326.97;5061477;28;20028;-74
2021/12/17 08:07:16;;;;;;;36.83;15.30;;;;;;;-146.64;100.00;42238.91;5048966;28;20033;-74
2021/12/17 08:09:43;;;;;;;43.72;16.35;;;;;;;-146.64;100.00;42335.16;5054565;28;20027;-74
2021/12/17 08:12:10;;;;;;;34.45;16.23;;;;;;;-146.64;100.00;42320.81;5053233;28;20041;-75
2021/12/17 08:14:35;;;;;;;34.80;15.57;;;;;;;-146.64;100.00;42376.13;5051572;28;20035;-74
2021/12/17 08:25:15;;;;;;;30.95;14.88;;;;;;;-146.64;100.00;42220.47;5055425;28;20055;-74
2021/12/17 08:28:04;;;;;;;32.20;13.88;;;;;;;-146.64;100.00;42081.19;5048682;28;20032;-74
2021/12/17 08:30:38;;;;;;;30.98;13.88;;;;;;;-146.64;100.00;41847.72;5063387;28;20040;-74
2021/12/17 08:33:05;;;;;;;28.73;14.45;;;;;;;-146.64;100.00;41784.25;5057637;28;20111;-74
2021/12/17 08:35:30;;;;;;;32.70;14.88;;;;;;;-146.64;100.00;41851.81;5053292;28;20392;-74
2021/12/17 08:37:56;;;;;;;33.63;13.65;;;;;;;-146.64;100.00;41860.03;5050143;28;20036;-74
2021/12/17 08:40:21;;;;;;;25.80;12.13;;;;;;;-146.64;100.00;41888.69;5064811;28;20484;-75
2021/12/17 08:42:46;;;;;;;27.75;12.93;;;;;;;-146.64;100.00;41900.97;5069327;28;20085;-75
2021/12/17 08:45:12;;;;;;;28.33;13.60;;;;;;;-146.64;100.00;41845.69;5058803;28;20029;-75
2021/12/17 08:47:37;;;;;;;27.48;12.63;;;;;;;-146.64;100.00;41825.22;5058206;28;20032;-74
2021/12/17 08:50:08;;;;;;;25.20;12.25;;;;;;;-146.64;100.00;41831.34;5056083;28;20032;-74
2021/12/17 08:52:33;;;;;;;23.75;11.27;;;;;;;-146.64;100.00;41733.06;5033017;28;20039;-74
2021/12/17 08:54:59;;;;;;;23.30;12.65;;;;;;;-146.64;100.00;41659.31;5051661;28;20376;-74
2021/12/17 08:57:24;;;;;;;27.48;11.30;;;;;;;-146.64;100.00;41532.38;5058759;28;20484;-74
2021/12/17 08:59:49;;;;;;;22.10;11.82;;;;;;;-146.64;100.00;41528.28;5031614;28;20116;-74
2021/12/17 09:02:15;;;;;;;19.15;9.77;;;;;;;-146.64;100.00;41290.75;5035637;28;20442;-74
2021/12/17 09:04:40;;;;;;;24.67;10.43;;;;;;;-146.64;100.00;41223.16;5049428;28;20028;-74
2021/12/17 09:07:06;;;;;;;18.00;10.38;;;;;;;-146.64;100.00;41217.03;5064621;28;20033;-74
2021/12/17 09:09:32;;;;;;;17.88;10.38;;;;;;;-146.64;100.00;41231.34;5052118;28;20024;-74
2021/12/17 09:11:57;;;;;;;20.10;9.63;;;;;;;-146.64;100.00;41249.78;5056456;28;20037;-74
2021/12/17 09:14:22;;;;;;;19.02;9.50;;;;;;;-146.64;100.00;41184.25;5058351;28;20076;-74
2021/12/17 09:16:48;;;;;;;21.98;10.63;;;;;;;-146.64;100.00;41184.25;5038413;28;20025;-74
2021/12/17 09:19:14;;;;;;;20.38;10.85;;;;;;;-146.64;100.00;41167.88;5057547;28;20506;-74
2021/12/17 09:21:39;;;;;;;22.15;12.10;;;;;;;-146.64;100.00;41155.59;5057399;28;20116;-75
2021/12/17 09:24:05;;;;;;;22.10;11.55;;;;;;;-146.64;100.00;41155.59;5039953;28;20111;-76
2021/12/17 09:26:32;;;;;;;22.00;11.40;;;;;;;-146.64;100.00;41219.06;5055623;28;20939;-76
2021/12/17 09:28:59;;;;;;;20.15;10.45;;;;;;;-146.64;100.00;41090.06;5049694;28;20025;-74
2021/12/17 09:31:24;;;;;;;16.23;9.87;;;;;;;-146.64;100.00;41057.31;5047283;28;20056;-76
2021/12/17 09:33:51;;;;;;;17.35;10.38;;;;;;;-146.64;100.00;40922.19;5052162;28;20062;-75
2021/12/17 09:36:20;;;;;;;21.40;10.55;;;;;;;-146.64;100.00;40873.03;5053107;28;20419;-76
2021/12/17 09:38:49;;;;;;;12.88;7.97;;;;;;;-146.64;100.00;40770.69;5035140;28;20033;-75
2021/12/17 09:41:16;;;;;;;13.63;9.30;;;;;;;-146.64;100.00;40682.63;5045639;28;20036;-75
2021/12/17 09:43:42;;;;;;;14.30;8.52;;;;;;;-146.64;100.00;40598.69;5045513;28;20416;-76
2021/12/17 09:46:08;;;;;;;9.18;5.65;;;;;;;-146.64;100.00;40463.59;5066898;28;20028;-75
2021/12/17 09:48:35;;;;;;;9.20;6.00;;;;;;;-146.64;100.00;40238.41;5056637;28;20044;-75
2021/12/17 09:51:03;;;;;;;9.65;6.00;;;;;;;-146.64;100.00;40224.06;5053284;28;20021;-75
2021/12/17 09:53:28;;;;;;;10.23;5.50;;;;;;;-146.64;100.00;40246.59;5051881;28;20031;-75
2021/12/17 09:55:54;;;;;;;6.85;4.82;;;;;;;-146.64;100.00;40226.13;5063518;28;20157;-75
2021/12/17 09:58:19;;;;;;;6.32;4.38;;;;;;;-146.64;100.00;40211.78;5056526;28;20049;-75
2021/12/17 10:00:44;;;;;;;6.30;4.60;;;;;;;-146.64;100.00;40209.75;5064301;28;20035;-75
2021/12/17 10:03:10;;;;;;;6.80;4.75;;;;;;;-146.64;100.00;40125.81;5069985;28;20063;-75
2021/12/17 10:05:37;;;;;;;6.65;4.25;;;;;;;-146.64;100.00;40140.13;5049218;28;20039;-75
2021/12/17 10:08:05;;;;;;;5.57;3.88;;;;;;;-146.64;100.00;40027.56;5051519;28;20029;-75
2021/12/17 10:10:47;;;;;;;4.35;3.30;;;;;;;-146.64;100.00;40111.47;5053783;28;20051;-75
2021/12/17 10:13:16;;;;;;;6.00;3.20;;;;;;;-146.64;100.00;40103.28;5051026;28;20377;-75
2021/12/17 10:15:44;;;;;;;5.20;4.03;;;;;;;-146.64;100.00;40127.84;5050540;28;20025;-75
2021/12/17 10:18:09;;;;;;;4.35;2.63;;;;;;;-146.64;100.00;40045.97;5036980;28;20029;-74
2021/12/17 10:20:41;;;;;;;4.40;3.03;;;;;;;-146.64;100.00;40050.06;5052918;28;20033;-75
2021/12/17 10:23:09;;;;;;;4.28;2.47;;;;;;;-146.64;100.00;40062.34;5052261;28;20074;-75
2021/12/17 10:25:38;;;;;;;3.35;2.83;;;;;;;-146.64;100.00;40054.16;5034911;28;20053;-75
2021/12/17 10:28:05;;;;;;;4.20;2.58;;;;;;;-146.64;100.00;40091.00;5050212;28;20074;-75
2021/12/17 10:30:34;;;;;;;;;;;;;;;-146.64;100.00;40091.00;5063776;28;20035;-75
2021/12/17 10:33:03;;;;;;;3.00;2.28;;;;;;;-146.64;100.00;40107.38;5052951;28;20613;-75
2021/12/17 10:35:31;;;;;;;3.80;2.83;;;;;;;-146.64;100.00;40084.88;5064352;28;20047;-75
2021/12/17 10:38:05;;;;;;;4.10;2.22;;;;;;;-146.64;100.00;40045.97;5051803;28;20399;-75
2021/12/17 10:40:31;;;;;;;3.60;2.83;;;;;;;-146.64;100.00;40082.81;5063737;28;20028;-75
2021/12/17 10:51:32;;;;;;;3.00;2.70;;;;;;;-146.64;100.00;40064.41;5054906;28;20033;-75
2021/12/17 10:54:02;;;;;;;3.45;2.95;;;;;;;-146.64;100.00;40070.53;5061692;28;20032;-75
2021/12/17 10:56:32;;;;;;;4.30;3.17;;;;;;;-146.64;100.00;40025.50;5038698;28;20028;-75
2021/12/17 10:59:10;;;;;;;3.00;2.65;;;;;;;-146.64;100.00;40003.00;5058676;28;20033;-76
2021/12/17 11:01:49;;;;;;;4.90;2.63;;;;;;;-146.64;100.00;40043.94;5044010;28;20484;-75
2021/12/17 11:04:19;;;;;;;4.07;2.85;;;;;;;-146.64;100.00;40082.81;5063343;28;20028;-76
2021/12/17 11:07:02;;;;;;;4.68;2.85;;;;;;;-146.64;100.00;40119.66;5036529;28;20028;-75
2021/12/17 11:09:47;;;;;;;3.80;2.50;;;;;;;-146.64;100.00;40115.56;5061746;28;20012;-75
2021/12/17 11:12:26;;;;;;;4.78;3.55;;;;;;;-146.64;100.00;40084.88;5080619;28;20044;-75
2021/12/17 11:14:52;;;;;;;5.15;3.35;;;;;;;-146.64;100.00;40099.19;5065503;28;20028;-75
2021/12/17 11:17:22;;;;;;;5.35;4.10;;;;;;;-146.64;100.00;40101.25;5060340;28;20030;-75
2021/12/17 11:19:53;;;;;;;4.85;3.65;;;;;;;-146.64;100.00;40050.06;5053617;28;20033;-75
2021/12/17 11:22:18;;;;;;;4.65;3.33;;;;;;;-146.64;100.00;40123.75;5055200;28;20029;-76
2021/12/17 11:24:43;;;;;;;5.63;4.30;;;;;;;-146.64;100.00;40099.19;5058056;28;20031;-75
2021/12/17 11:27:09;;;;;;;7.50;4.07;;;;;;;-146.64;100.00;40086.91;5038838;28;20494;-75
2021/12/17 11:29:34;;;;;;;5.50;3.70;;;;;;;-146.64;100.00;40091.00;5055447;28;20020;-75
2021/12/17 11:32:02;;;;;;;9.07;4.78;;;;;;;-146.64;100.00;40080.78;5052194;28;20518;-75
2021/12/17 11:34:30;;;;;;;6.28;4.35;;;;;;;-146.64;100.00;40111.47;5057027;28;20040;-75
2021/12/17 11:36:56;;;;;;;9.80;4.30;;;;;;;-146.64;100.00;40078.72;5051139;28;20400;-74
2021/12/17 11:39:24;;;;;;;7.80;5.32;;;;;;;-146.64;100.00;40109.44;5051811;28;20083;-74
2021/12/17 11:42:16;;;;;;;7.28;4.80;;;;;;;-146.64;100.00;40131.94;5051910;28;20131;-75
2021/12/17 11:44:51;;;;;;;7.97;4.75;;;;;;;-146.64;100.00;40115.56;5053590;28;20126;-74
2021/12/17 11:47:16;;;;;;;7.00;4.82;;;;;;;-146.64;100.00;40111.47;5052436;28;20130;-73
2021/12/17 11:49:49;;;;;;;6.00;4.72;;;;;;;-146.64;100.00;40115.56;5041392;28;20123;-74
2021/12/17 11:52:15;;;;;;;6.88;4.82;;;;;;;-146.64;100.00;40115.56;5058757;28;20020;-75
2021/12/17 11:54:41;;;;;;;9.52;5.00;;;;;;;-146.64;100.00;40060.31;5049079;28;20021;-74
2021/12/17 11:57:10;;;;;;;8.18;5.90;;;;;;;-146.64;100.00;40125.81;5054883;28;20185;-74
2021/12/17 11:59:42;;;;;;;9.32;5.82;;;;;;;-146.64;100.00;40150.38;5049273;28;20392;-74
2021/12/17 12:02:19;;;;;;;8.35;5.95;;;;;;;-146.64;100.00;40136.03;5056303;28;20024;-74
2021/12/17 12:04:53;;;;;;;10.05;6.88;;;;;;;-146.64;100.00;40152.41;5056370;28;20033;-74
2021/12/17 12:07:25;;;;;;;11.55;6.78;;;;;;;-146.64;100.00;40144.22;5060283;28;20039;-74
2021/12/17 12:10:09;;;;;;;9.57;6.85;;;;;;;-146.64;100.00;40111.47;5051555;28;20017;-74
2021/12/17 12:12:34;;;;;;;10.02;7.40;;;;;;;-146.64;100.00;40140.13;5055097;28;20594;-74
2021/12/17 12:15:19;;;;;;;11.73;7.68;;;;;;;-146.64;100.00;40121.72;5057038;28;20048;-73
2021/12/17 12:17:57;;;;;;;12.25;7.60;;;;;;;-146.64;100.00;40082.81;5052159;28;20032;-73
2021/12/17 12:23:29;;;;;;;8.40;6.40;;;;;;;-146.64;100.00;40095.09;5056371;28;20044;-74
2021/12/17 12:26:01;;;;;;;12.25;6.82;;;;;;;-146.64;100.00;40086.91;5049228;28;20025;-74
2021/12/17 12:28:49;;;;;;;9.57;6.13;;;;;;;-146.64;100.00;40082.81;5063758;28;20025;-74
2021/12/17 12:31:17;;;;;;;10.93;7.53;;;;;;;-146.64;100.00;40074.63;5056957;28;20028;-74
2021/12/17 12:33:58;;;;;;;12.18;6.78;;;;;;;-146.64;100.00;40127.84;5055167;28;20036;-74
2021/12/17 12:36:51;;;;;;;9.88;6.53;;;;;;;-146.64;100.00;40103.28;5052754;28;20037;-74
2021/12/17 12:39:21;;;;;;;10.13;6.75;;;;;;;-146.64;100.00;40140.13;5062431;28;20503;-74
2021/12/17 12:42:30;;;;;;;8.68;6.60;;;;;;;-146.64;100.00;40146.28;5060941;28;20025;-74
2021/12/17 12:44:55;;;;;;;13.77;7.30;;;;;;;-146.64;100.00;40148.31;5051077;28;20079;-74
2021/12/17 12:47:20;;;;;;;12.23;7.67;;;;;;;-146.64;100.00;40123.75;5049277;28;20064;-74
2021/12/17 12:49:51;;;;;;;12.43;8.33;;;;;;;-146.64;100.00;40131.94;5064488;28;20273;-74
2021/12/17 12:52:30;;;;;;;12.43;9.57;;;;;;;-146.64;100.00;40095.09;5062961;28;20773;-74
2021/12/17 12:55:13;;;;;;;10.85;9.02;;;;;;;-146.64;100.00;40115.56;5066006;28;20494;-74
2021/12/17 12:57:50;;;;;;;9.90;7.55;;;;;;;-146.64;100.00;40127.84;5055287;28;20041;-74
2021/12/17 13:00:26;;;;;;;13.95;7.68;;;;;;;-146.64;100.00;40095.09;5053272;28;20059;-74
2021/12/17 13:03:04;;;;;;;9.32;5.97;;;;;;;-146.64;100.00;40105.34;5062828;28;20032;-74
2021/12/17 13:05:30;;;;;;;6.10;4.85;;;;;;;-146.64;100.00;40084.88;5051259;28;20096;-76
2021/12/17 13:07:58;;;;;;;6.43;4.93;;;;;;;-146.64;100.00;40131.94;5042855;28;20029;-74
2021/12/17 13:10:50;;;;;;;8.65;4.97;;;;;;;-146.64;100.00;40070.53;5061713;28;20029;-74
2021/12/17 13:16:19;;;;;;;9.63;5.03;;;;;;;-146.64;100.00;40119.66;5053338;28;20424;-75
2021/12/17 13:26:38;;;;;;;6.97;4.65;;;;;;;-146.64;100.00;40131.94;5067516;28;20036;-74
2021/12/17 13:29:12;;;;;;;8.30;5.57;;;;;;;-146.64;100.00;40103.28;5053787;28;20020;-74
2021/12/17 13:31:52;;;;;;;8.05;5.03;;;;;;;-146.64;100.00;40121.72;5055644;28;20117;-74
2021/12/17 13:34:22;;;;;;;14.32;6.18;;;;;;;-146.64;100.00;40107.38;5052120;28;20025;-74
2021/12/17 13:36:51;;;;;;;8.30;5.72;;;;;;;-146.64;100.00;40099.19;5059056;28;20025;-74
2021/12/17 13:39:17;;;;;;;8.75;6.10;;;;;;;-146.64;100.00;40033.69;5057290;28;20414;-74
2021/12/17 13:41:44;;;;;;;11.07;5.90;;;;;;;-146.64;100.00;40119.66;5067601;28;20035;-74
2021/12/17 13:44:33;;;;;;;8.27;5.10;;;;;;;-146.64;100.00;40107.38;5068187;28;20033;-74
2021/12/17 13:47:09;;;;;;;7.57;4.93;;;;;;;-146.64;100.00;40123.75;5069477;28;20021;-74
2021/12/17 13:49:34;;;;;;;5.57;3.95;;;;;;;-146.64;100.00;40121.72;5059186;28;20053;-75
2021/12/17 13:52:00;;;;;;;5.72;4.10;;;;;;;-146.64;100.00;40131.94;5061834;28;20556;-75
2021/12/17 13:54:25;;;;;;;5.75;4.50;;;;;;;-146.64;100.00;40054.16;5050293;28;20028;-74
2021/12/17 13:56:58;;;;;;;4.88;4.07;;;;;;;-146.64;100.00;40148.31;5062430;28;20040;-74
2021/12/17 13:59:34;;;;;;;5.95;3.75;;;;;;;-146.64;100.00;40172.91;5062029;28;20437;-75
2021/12/17 14:02:21;;;;;;;5.43;4.03;;;;;;;-146.64;100.00;40131.94;5057198;28;20036;-75
2021/12/17 14:05:04;;;;;;;4.45;3.67;;;;;;;-146.64;100.00;40103.28;5061470;28;20035;-75
2021/12/17 14:07:32;;;;;;;5.40;4.10;;;;;;;-146.64;100.00;40103.28;5043454;28;20079;-74
2021/12/17 14:10:14;;;;;;;4.90;3.85;;;;;;;-146.64;100.00;40134.00;5060330;28;20028;-75
2021/12/17 14:12:41;;;;;;;5.15;4.07;;;;;;;-146.64;100.00;40156.50;5067184;28;20031;-75